Time;durP1;ratioP1;P1;durP2;ratioP2;P2;SDS_P1;SDS_P2;PMS_P1;PMS_P2;Temp;Humidity;BMP_temperature;BMP_pressure;BME280_temperature;BME280_humidity;BME280_pressure;Samples;Min_cycle;Max_cycle;Signal;HPM_P1;HPM_P2
2023/12/04 00:02:03;;;;;;;24.60;15.87;;;0.60;99.90;;;;;;5026780;28;20272;-67
2023/12/04 00:04:29;;;;;;;24.37;14.67;;;0.60;99.90;;;;;;5019276;28;20256;-67
2023/12/04 00:06:54;;;;;;;22.50;14.97;;;0.60;99.90;;;;;;5026932;28;20996;-67
2023/12/04 00:09:20;;;;;;;19.03;13.10;;;0.60;99.90;;;;;;5024656;28;20237;-67
2023/12/04 00:11:46;;;;;;;21.33;14.57;;;0.60;99.90;;;;;;5020477;28;20207;-67
2023/12/04 00:14:11;;;;;;;22.73;13.83;;;0.60;99.90;;;;;;5023181;28;20536;-67
2023/12/04 00:16:37;;;;;;;18.57;12.90;;;0.60;99.90;;;;;;5027419;28;20329;-67
2023/12/04 00:19:03;;;;;;;23.73;14.47;;;0.60;99.90;;;;;;5025191;28;20229;-67
2023/12/04 00:21:28;;;;;;;22.37;13.87;;;0.60;99.90;;;;;;5023576;28;20172;-67
2023/12/04 00:23:54;;;;;;;18.83;11.77;;;0.60;99.90;;;;;;5025262;28;20238;-67
2023/12/04 00:26:19;;;;;;;16.97;11.77;;;0.60;99.90;;;;;;5022788;28;20187;-66
2023/12/04 00:28:45;;;;;;;21.23;12.80;;;0.60;99.90;;;;;;5024919;28;20250;-66
2023/12/04 00:31:10;;;;;;;15.73;11.33;;;0.60;99.90;;;;;;5026322;28;20204;-67
2023/12/04 00:33:36;;;;;;;17.43;11.80;;;0.60;99.90;;;;;;5020661;28;20239;-65
2023/12/04 00:36:02;;;;;;;20.70;12.60;;;0.60;99.90;;;;;;5025670;28;20628;-65
2023/12/04 00:38:27;;;;;;;22.77;13.57;;;0.60;99.90;;;;;;5019293;28;20369;-65
2023/12/04 00:40:55;;;;;;;19.27;12.90;;;0.60;99.90;;;;;;5020681;28;20195;-65
2023/12/04 00:43:21;;;;;;;18.30;12.50;;;0.50;99.90;;;;;;5027534;28;20297;-65
2023/12/04 00:45:47;;;;;;;20.10;13.20;;;0.50;99.90;;;;;;5028275;28;20509;-65
2023/12/04 00:48:12;;;;;;;18.17;12.80;;;0.60;99.90;;;;;;5022746;28;20184;-65
2023/12/04 00:50:38;;;;;;;20.87;12.80;;;0.60;99.90;;;;;;5028542;28;20196;-65
2023/12/04 00:53:04;;;;;;;17.97;11.57;;;0.60;99.90;;;;;;5025488;28;20204;-67
2023/12/04 00:55:29;;;;;;;17.80;11.67;;;0.60;99.90;;;;;;5020518;28;20584;-65
2023/12/04 00:57:55;;;;;;;17.70;12.37;;;0.60;99.90;;;;;;5027508;28;20684;-66
2023/12/04 01:00:20;;;;;;;22.07;12.20;;;0.60;99.90;;;;;;5029697;28;20182;-67
2023/12/04 01:02:46;;;;;;;19.93;13.00;;;0.60;99.90;;;;;;5030866;28;20689;-66
2023/12/04 01:05:11;;;;;;;23.43;13.77;;;0.60;99.90;;;;;;5028968;28;20188;-66
2023/12/04 01:07:37;;;;;;;18.43;12.67;;;0.60;99.90;;;;;;5026198;28;20244;-66
2023/12/04 01:10:04;;;;;;;23.73;13.27;;;0.60;99.90;;;;;;5026776;28;20736;-66
2023/12/04 01:12:29;;;;;;;23.00;15.63;;;0.60;99.90;;;;;;5027890;28;20208;-67
2023/12/04 01:14:55;;;;;;;19.10;13.13;;;0.60;99.90;;;;;;5027405;28;20525;-66
2023/12/04 01:17:20;;;;;;;22.30;14.23;;;0.60;99.90;;;;;;5030063;28;20199;-66
2023/12/04 01:19:46;;;;;;;21.60;12.90;;;0.70;99.90;;;;;;5027750;28;20287;-66
2023/12/04 01:22:12;;;;;;;22.70;11.17;;;0.70;99.90;;;;;;5028580;28;20186;-67
2023/12/04 01:24:37;;;;;;;19.03;12.80;;;0.70;99.90;;;;;;5029121;28;20204;-66
2023/12/04 01:27:03;;;;;;;18.73;13.00;;;0.70;99.90;;;;;;5027917;28;20183;-66
2023/12/04 01:29:29;;;;;;;23.20;13.60;;;0.70;99.90;;;;;;5027921;28;20189;-67
2023/12/04 01:31:54;;;;;;;19.47;13.43;;;0.70;99.90;;;;;;5026681;28;20208;-67
2023/12/04 01:34:20;;;;;;;21.90;13.10;;;0.70;99.90;;;;;;5025271;28;20468;-66
2023/12/04 01:36:45;;;;;;;19.80;13.00;;;0.70;99.90;;;;;;5026785;28;20252;-66
2023/12/04 01:39:11;;;;;;;18.33;13.47;;;0.60;99.90;;;;;;5027209;28;20168;-66
2023/12/04 01:41:36;;;;;;;17.60;12.77;;;0.60;99.90;;;;;;5026978;28;20180;-66
2023/12/04 01:44:02;;;;;;;20.90;13.63;;;0.60;99.90;;;;;;5024712;28;20213;-66
2023/12/04 01:46:27;;;;;;;22.37;13.60;;;0.60;99.90;;;;;;5026456;28;20671;-66
2023/12/04 01:48:53;;;;;;;22.60;13.03;;;0.60;99.90;;;;;;5026883;28;20184;-67
2023/12/04 01:51:20;;;;;;;20.40;12.70;;;0.60;99.90;;;;;;5027492;28;20210;-67
2023/12/04 01:53:47;;;;;;;23.33;15.27;;;0.50;99.90;;;;;;5023384;28;20437;-67
2023/12/04 01:56:14;;;;;;;21.60;14.10;;;0.50;99.90;;;;;;5027384;28;20520;-67
2023/12/04 01:58:40;;;;;;;20.27;12.87;;;0.50;99.90;;;;;;5020992;28;20408;-67
2023/12/04 02:01:06;;;;;;;22.50;14.77;;;0.40;99.90;;;;;;5029848;28;20471;-67
2023/12/04 02:03:32;;;;;;;21.70;14.50;;;0.40;99.90;;;;;;5020073;28;20723;-67
2023/12/04 02:06:00;;;;;;;22.37;14.83;;;0.40;99.90;;;;;;5028351;28;20827;-67
2023/12/04 02:08:26;;;;;;;19.30;14.10;;;0.40;99.90;;;;;;5021038;28;20507;-67
2023/12/04 02:10:52;;;;;;;23.87;13.10;;;0.40;99.90;;;;;;5023908;28;20427;-67
2023/12/04 02:13:17;;;;;;;24.00;13.60;;;0.40;99.90;;;;;;5021292;28;20467;-66
2023/12/04 02:15:45;;;;;;;22.43;14.27;;;0.30;99.90;;;;;;5023519;28;20191;-68
2023/12/04 02:18:11;;;;;;;20.20;14.30;;;0.30;99.90;;;;;;5019688;28;20183;-67
2023/12/04 02:20:36;;;;;;;20.70;13.97;;;0.30;99.90;;;;;;5023519;28;20976;-67
2023/12/04 02:23:03;;;;;;;22.13;13.80;;;0.30;99.90;;;;;;5026951;28;20484;-67
2023/12/04 02:25:30;;;;;;;20.57;13.70;;;0.20;99.90;;;;;;5023846;28;20186;-67
2023/12/04 02:27:59;;;;;;;22.57;13.50;;;0.20;99.90;;;;;;5020158;28;20469;-67
2023/12/04 02:30:26;;;;;;;22.37;14.70;;;0.20;99.90;;;;;;5023243;28;20524;-66
2023/12/04 02:32:53;;;;;;;20.93;13.27;;;0.20;99.90;;;;;;5025122;28;20473;-66
2023/12/04 02:35:25;;;;;;;19.47;13.40;;;0.20;99.90;;;;;;5021779;28;20819;-66
2023/12/04 02:37:52;;;;;;;18.40;12.47;;;0.30;99.90;;;;;;5024489;28;20763;-66
2023/12/04 02:40:18;;;;;;;19.43;12.50;;;0.20;99.90;;;;;;5019690;28;20448;-66
2023/12/04 02:42:45;;;;;;;19.03;12.90;;;0.20;99.90;;;;;;5022911;28;20469;-66
2023/12/04 02:45:11;;;;;;;22.53;14.37;;;0.20;99.90;;;;;;5026347;28;20418;-66
2023/12/04 02:47:36;;;;;;;17.80;12.00;;;0.20;99.90;;;;;;5020766;28;20472;-66
2023/12/04 02:50:02;;;;;;;18.23;12.10;;;0.30;99.90;;;;;;5020215;28;20553;-66
2023/12/04 02:52:28;;;;;;;16.00;11.53;;;0.20;99.90;;;;;;5019505;28;20239;-67
2023/12/04 02:54:53;;;;;;;20.50;12.83;;;0.30;99.90;;;;;;5020740;28;20577;-66
2023/12/04 02:57:20;;;;;;;17.60;11.50;;;0.30;99.90;;;;;;5021306;28;20572;-67
2023/12/04 02:59:45;;;;;;;22.10;13.50;;;0.30;99.90;;;;;;5017956;28;20183;-66
2023/12/04 03:02:11;;;;;;;20.77;12.03;;;0.30;99.90;;;;;;5017309;28;20442;-66
2023/12/04 03:04:36;;;;;;;18.93;12.13;;;0.30;99.90;;;;;;5015018;28;20215;-66
2023/12/04 03:07:02;;;;;;;21.90;13.03;;;0.30;99.90;;;;;;5018383;28;20192;-66
2023/12/04 03:09:27;;;;;;;19.87;13.03;;;0.30;99.90;;;;;;5024570;28;20589;-66
2023/12/04 03:11:53;;;;;;;18.00;12.90;;;0.30;99.90;;;;;;5021209;28;20212;-66
2023/12/04 03:14:19;;;;;;;17.60;12.20;;;0.30;99.90;;;;;;5021595;28;20793;-67
2023/12/04 03:16:44;;;;;;;19.63;12.90;;;0.30;99.90;;;;;;5022894;28;20183;-67
2023/12/04 03:19:10;;;;;;;17.00;11.00;;;0.30;99.90;;;;;;5025516;28;20268;-67
2023/12/04 03:21:35;;;;;;;17.60;11.30;;;0.30;99.90;;;;;;5019173;28;20321;-67
2023/12/04 03:24:01;;;;;;;20.60;12.40;;;0.30;99.90;;;;;;5025786;28;20209;-68
2023/12/04 03:26:28;;;;;;;19.10;12.17;;;0.30;99.90;;;;;;5025802;28;20646;-66
2023/12/04 03:28:53;;;;;;;18.50;11.40;;;0.30;99.90;;;;;;5030671;28;20295;-66
2023/12/04 03:31:19;;;;;;;19.43;10.70;;;0.40;99.90;;;;;;5026341;28;21068;-66
2023/12/04 03:33:44;;;;;;;17.03;10.93;;;0.30;99.90;;;;;;5025839;28;20700;-66
2023/12/04 03:36:10;;;;;;;16.93;11.30;;;0.40;99.90;;;;;;5023887;28;20187;-67
2023/12/04 03:38:36;;;;;;;14.00;9.60;;;0.40;99.90;;;;;;5020067;28;20555;-67
2023/12/04 03:41:01;;;;;;;16.00;10.80;;;0.30;99.90;;;;;;5028627;28;20707;-67
2023/12/04 03:43:27;;;;;;;17.20;10.87;;;0.30;99.90;;;;;;5024640;28;20458;-67
2023/12/04 03:45:52;;;;;;;20.00;12.23;;;0.30;99.90;;;;;;5021674;28;20199;-66
2023/12/04 03:48:18;;;;;;;17.00;12.37;;;0.30;99.90;;;;;;5026421;28;20191;-66
2023/12/04 03:50:43;;;;;;;21.33;11.70;;;0.30;99.90;;;;;;5022844;28;20192;-66
2023/12/04 03:53:09;;;;;;;17.53;11.93;;;0.30;99.90;;;;;;5022557;28;20201;-66
2023/12/04 03:55:34;;;;;;;24.70;14.40;;;0.30;99.90;;;;;;5023384;28;20218;-66
2023/12/04 03:58:00;;;;;;;17.70;11.90;;;0.20;99.90;;;;;;5029795;28;20223;-67
2023/12/04 04:00:26;;;;;;;21.57;14.57;;;0.10;99.90;;;;;;5024368;28;20523;-67
2023/12/04 04:02:51;;;;;;;20.00;13.77;;;0.10;99.90;;;;;;5028538;28;20393;-66
2023/12/04 04:05:17;;;;;;;21.87;14.20;;;0.00;99.90;;;;;;5022806;28;20180;-67
2023/12/04 04:07:43;;;;;;;20.13;14.30;;;0.00;99.90;;;;;;5027843;28;20226;-66
2023/12/04 04:10:09;;;;;;;20.27;13.77;;;0.00;99.90;;;;;;5025130;28;20177;-66
2023/12/04 04:12:34;;;;;;;23.03;13.37;;;0.00;99.90;;;;;;5022039;28;20604;-66
2023/12/04 04:15:00;;;;;;;21.97;13.93;;;-0.10;99.90;;;;;;5025725;28;20420;-67
2023/12/04 04:17:26;;;;;;;23.07;14.67;;;-0.10;99.90;;;;;;5026290;28;20186;-66
2023/12/04 04:19:55;;;;;;;20.47;12.97;;;-0.20;99.90;;;;;;5021503;28;20420;-66
2023/12/04 04:22:21;;;;;;;21.30;14.80;;;-0.20;99.90;;;;;;5026889;28;20177;-66
2023/12/04 04:24:48;;;;;;;23.57;15.20;;;-0.30;99.90;;;;;;5025065;28;20432;-66
2023/12/04 04:27:13;;;;;;;22.93;14.40;;;-0.30;99.90;;;;;;5024882;28;20437;-66
2023/12/04 04:29:39;;;;;;;23.50;14.83;;;-0.30;99.90;;;;;;5022583;28;20997;-66
2023/12/04 04:32:05;;;;;;;20.50;14.73;;;-0.40;99.90;;;;;;5018926;28;20214;-66
2023/12/04 04:34:30;;;;;;;20.83;13.53;;;-0.40;99.90;;;;;;5019889;28;20204;-66
2023/12/04 04:36:56;;;;;;;25.60;15.90;;;-0.50;99.90;;;;;;5027058;28;21300;-66
2023/12/04 04:39:21;;;;;;;23.97;14.70;;;-0.60;99.90;;;;;;5027988;28;20216;-66
2023/12/04 04:41:47;;;;;;;25.77;14.77;;;-0.50;99.90;;;;;;5026919;28;20188;-66
2023/12/04 04:44:12;;;;;;;20.73;14.03;;;-0.50;99.90;;;;;;5027662;28;20783;-67
2023/12/04 04:46:38;;;;;;;25.60;15.53;;;-0.50;99.90;;;;;;5029735;28;20188;-67
2023/12/04 04:49:06;;;;;;;21.17;14.63;;;-0.60;99.90;;;;;;5030631;28;20189;-66
2023/12/04 04:51:33;;;;;;;24.53;15.50;;;-0.60;99.90;;;;;;5026382;28;20209;-66
2023/12/04 04:53:59;;;;;;;31.97;14.97;;;-0.60;99.90;;;;;;5030078;28;20548;-67
2023/12/04 04:56:24;;;;;;;21.30;15.17;;;-0.50;99.90;;;;;;5035090;28;20500;-66
2023/12/04 04:58:50;;;;;;;23.97;14.90;;;-0.60;99.90;;;;;;5025748;28;20757;-66
2023/12/04 05:01:16;;;;;;;22.43;14.90;;;-0.50;99.90;;;;;;5026183;28;20192;-66
2023/12/04 05:03:41;;;;;;;22.00;14.43;;;-0.40;99.90;;;;;;5029195;28;20207;-66
2023/12/04 05:06:07;;;;;;;25.13;15.23;;;-0.40;99.90;;;;;;5032260;28;20198;-66
2023/12/04 05:08:32;;;;;;;26.23;17.30;;;-0.60;99.90;;;;;;5023779;28;20199;-66
2023/12/04 05:10:58;;;;;;;23.57;15.70;;;-0.60;99.90;;;;;;5031026;28;20657;-66
2023/12/04 05:13:23;;;;;;;21.53;12.83;;;-0.50;99.90;;;;;;5022067;28;20227;-66
2023/12/04 05:15:49;;;;;;;22.60;14.60;;;-0.50;99.90;;;;;;5017506;28;20195;-67
2023/12/04 05:18:15;;;;;;;33.27;16.77;;;-0.50;99.90;;;;;;5024700;28;20246;-67
2023/12/04 05:20:40;;;;;;;21.83;14.37;;;-0.60;99.90;;;;;;5018985;28;20624;-68
2023/12/04 05:23:06;;;;;;;21.57;14.67;;;-0.60;99.90;;;;;;5024885;28;20290;-67
2023/12/04 05:25:31;;;;;;;25.40;15.20;;;-0.70;99.90;;;;;;5026592;28;20183;-68
2023/12/04 05:27:57;;;;;;;24.60;14.50;;;-0.70;99.90;;;;;;5020939;28;20270;-67
2023/12/04 05:30:23;;;;;;;24.40;17.00;;;-0.80;99.90;;;;;;5024226;28;20190;-67
2023/12/04 05:32:48;;;;;;;20.67;13.70;;;-0.70;99.90;;;;;;5022637;28;20220;-67
2023/12/04 05:35:16;;;;;;;23.33;14.40;;;-0.70;99.90;;;;;;5019340;28;20768;-67
2023/12/04 05:37:41;;;;;;;24.83;14.87;;;-0.70;99.90;;;;;;5012170;28;20179;-67
2023/12/04 05:40:07;;;;;;;25.77;15.43;;;-0.60;99.90;;;;;;5027433;28;20851;-67
2023/12/04 05:42:33;;;;;;;23.30;15.63;;;-0.60;99.90;;;;;;5019987;28;20194;-67
2023/12/04 05:45:00;;;;;;;23.60;14.20;;;-0.50;99.90;;;;;;5019020;28;20773;-67
2023/12/04 05:47:26;;;;;;;25.80;16.27;;;-0.50;99.90;;;;;;5022437;28;20184;-67
2023/12/04 05:49:51;;;;;;;24.80;15.30;;;-0.50;99.90;;;;;;5022418;28;20465;-67
2023/12/04 05:52:17;;;;;;;28.27;16.53;;;-0.40;99.90;;;;;;5019920;28;20215;-66
2023/12/04 05:54:42;;;;;;;24.70;15.57;;;-0.40;99.90;;;;;;5021211;28;20233;-66
2023/12/04 05:57:08;;;;;;;26.03;16.80;;;-0.30;99.90;;;;;;5018183;28;20172;-66
2023/12/04 05:59:34;;;;;;;23.93;15.40;;;-0.30;99.90;;;;;;5016965;28;20702;-67
2023/12/04 06:02:00;;;;;;;24.30;15.00;;;-0.30;99.90;;;;;;5022317;28;20263;-66
2023/12/04 06:04:26;;;;;;;28.83;15.00;;;-0.30;99.90;;;;;;5020272;28;20538;-66
2023/12/04 06:06:52;;;;;;;27.33;16.33;;;-0.30;99.90;;;;;;5018036;28;20855;-66
2023/12/04 06:09:17;;;;;;;23.30;16.03;;;-0.20;99.90;;;;;;5023689;28;20713;-67
2023/12/04 06:11:43;;;;;;;21.43;14.10;;;-0.20;99.90;;;;;;5015401;28;20658;-67
2023/12/04 06:14:08;;;;;;;24.73;15.70;;;-0.20;99.90;;;;;;5018076;28;20205;-67
2023/12/04 06:16:34;;;;;;;24.00;14.50;;;-0.20;99.90;;;;;;5019758;28;20550;-67
2023/12/04 06:18:59;;;;;;;26.73;15.67;;;-0.10;99.90;;;;;;5017883;28;20229;-67
2023/12/04 06:21:25;;;;;;;22.57;14.10;;;-0.10;99.90;;;;;;5022808;28;20187;-67
2023/12/04 06:23:51;;;;;;;21.83;14.40;;;-0.10;99.90;;;;;;5017322;28;20204;-67
2023/12/04 06:26:17;;;;;;;26.37;15.40;;;0.00;99.90;;;;;;5020936;28;20234;-67
2023/12/04 06:28:43;;;;;;;28.73;15.87;;;0.00;99.90;;;;;;5011201;28;20424;-67
2023/12/04 06:31:10;;;;;;;26.00;15.20;;;0.00;99.90;;;;;;5022896;28;20462;-67
2023/12/04 06:33:35;;;;;;;23.80;15.47;;;0.00;99.90;;;;;;5013852;28;20430;-67
2023/12/04 06:36:02;;;;;;;24.57;16.10;;;0.00;99.90;;;;;;5019795;28;20464;-67
2023/12/04 06:38:31;;;;;;;25.53;16.17;;;0.00;99.90;;;;;;5022575;28;20418;-67
2023/12/04 06:40:57;;;;;;;25.87;17.13;;;0.10;99.90;;;;;;5015569;28;20462;-67
2023/12/04 06:43:23;;;;;;;27.17;16.93;;;0.10;99.90;;;;;;5019275;28;20485;-68
2023/12/04 06:45:49;;;;;;;28.97;16.30;;;0.10;99.90;;;;;;5019856;28;20499;-67
2023/12/04 06:48:15;;;;;;;24.77;16.07;;;0.20;99.90;;;;;;5009866;28;20434;-67
2023/12/04 06:50:41;;;;;;;21.67;14.60;;;0.20;99.90;;;;;;5017147;28;20663;-67
2023/12/04 06:53:06;;;;;;;24.20;15.80;;;0.20;99.90;;;;;;5021103;28;20238;-67
2023/12/04 06:55:32;;;;;;;19.53;13.80;;;0.30;99.90;;;;;;5021162;28;20209;-67
2023/12/04 06:57:58;;;;;;;24.57;14.20;;;0.30;99.90;;;;;;5009741;28;20177;-67
2023/12/04 07:00:23;;;;;;;24.27;14.67;;;0.40;99.90;;;;;;5021643;28;20180;-67
2023/12/04 07:02:50;;;;;;;18.53;13.13;;;0.40;99.90;;;;;;5010892;28;20270;-67
2023/12/04 07:05:15;;;;;;;20.73;12.83;;;0.40;99.90;;;;;;5017124;28;20185;-68
2023/12/04 07:07:41;;;;;;;22.37;13.50;;;0.40;99.90;;;;;;5019042;28;20454;-67
2023/12/04 07:10:07;;;;;;;20.33;12.07;;;0.50;99.90;;;;;;5017486;28;20861;-67
2023/12/04 07:12:33;;;;;;;19.13;12.10;;;0.50;99.90;;;;;;5018186;28;20261;-67
2023/12/04 07:14:59;;;;;;;16.87;12.00;;;0.60;99.90;;;;;;5019363;28;20463;-68
2023/12/04 07:17:24;;;;;;;17.30;11.00;;;0.60;99.90;;;;;;5016220;28;20190;-68
2023/12/04 07:19:50;;;;;;;15.10;9.80;;;0.60;99.90;;;;;;5018306;28;20642;-68
2023/12/04 07:22:15;;;;;;;15.20;10.63;;;0.70;99.90;;;;;;5016903;28;20247;-67
2023/12/04 07:24:41;;;;;;;15.90;10.03;;;0.70;99.90;;;;;;5019296;28;20207;-67
2023/12/04 07:27:06;;;;;;;13.20;8.70;;;0.70;99.90;;;;;;5017673;28;20212;-67
2023/12/04 07:29:32;;;;;;;16.03;9.93;;;0.80;99.90;;;;;;5019915;28;20184;-67
2023/12/04 07:31:58;;;;;;;15.10;10.33;;;0.90;99.90;;;;;;5014235;28;20220;-67
2023/12/04 07:34:24;;;;;;;17.63;9.83;;;1.00;99.90;;;;;;5008518;28;20204;-67
2023/12/04 07:36:50;;;;;;;12.90;9.73;;;1.10;99.90;;;;;;5006754;28;20449;-68
2023/12/04 07:39:16;;;;;;;16.07;10.90;;;1.20;99.90;;;;;;5018302;28;20176;-67
2023/12/04 07:41:41;;;;;;;14.03;9.53;;;1.20;99.90;;;;;;5014663;28;20438;-68
2023/12/04 07:44:08;;;;;;;12.87;9.10;;;1.30;99.90;;;;;;5012660;28;20238;-68
2023/12/04 07:46:34;;;;;;;12.53;9.10;;;1.40;99.90;;;;;;5015964;28;20177;-68
2023/12/04 07:48:59;;;;;;;11.93;9.73;;;1.50;99.90;;;;;;5014806;28;20476;-68
2023/12/04 07:51:25;;;;;;;15.63;9.60;;;1.60;99.90;;;;;;5012710;28;20460;-68
2023/12/04 07:53:50;;;;;;;13.50;8.57;;;1.60;99.90;;;;;;5014566;28;20745;-68
2023/12/04 07:56:16;;;;;;;15.07;10.63;;;1.60;99.90;;;;;;5016175;28;20187;-67
2023/12/04 07:58:41;;;;;;;10.40;8.80;;;1.60;99.90;;;;;;5018321;28;20204;-67
2023/12/04 08:01:08;;;;;;;14.57;10.27;;;1.60;99.90;;;;;;5020781;28;20931;-68
2023/12/04 08:03:33;;;;;;;13.00;9.50;;;1.60;99.90;;;;;;5019128;28;20204;-67
2023/12/04 08:05:59;;;;;;;17.97;10.00;;;1.60;99.90;;;;;;5017481;28;20921;-68
2023/12/04 08:08:25;;;;;;;16.27;10.73;;;1.60;99.90;;;;;;5015409;28;20211;-67
2023/12/04 08:10:50;;;;;;;16.70;11.03;;;1.60;99.90;;;;;;5024005;28;20637;-67
2023/12/04 08:13:16;;;;;;;17.70;10.40;;;1.60;99.90;;;;;;5028409;28;20229;-68
2023/12/04 08:15:42;;;;;;;14.30;10.90;;;1.50;99.90;;;;;;5024466;28;20207;-67
2023/12/04 08:18:08;;;;;;;15.70;10.33;;;1.50;99.90;;;;;;5026479;28;20222;-68
2023/12/04 08:20:34;;;;;;;15.70;11.00;;;1.50;99.90;;;;;;5027029;28;20921;-67
2023/12/04 08:23:00;;;;;;;17.70;12.13;;;1.60;99.90;;;;;;5017775;28;20452;-67
2023/12/04 08:25:25;;;;;;;13.90;9.80;;;1.60;99.90;;;;;;5019410;28;20183;-66
2023/12/04 08:27:51;;;;;;;14.30;9.77;;;1.50;99.90;;;;;;5016141;28;20234;-67
2023/12/04 08:30:16;;;;;;;15.97;9.90;;;1.50;99.90;;;;;;5027065;28;20553;-67
2023/12/04 08:32:43;;;;;;;19.50;10.40;;;1.60;99.90;;;;;;5012181;28;20246;-68
2023/12/04 08:35:08;;;;;;;17.57;11.83;;;1.60;99.90;;;;;;5017747;28;20238;-67
2023/12/04 08:37:34;;;;;;;19.13;10.90;;;1.60;99.90;;;;;;5015434;28;20832;-67
2023/12/04 08:39:59;;;;;;;15.60;11.17;;;1.60;99.90;;;;;;5014263;28;20554;-67
2023/12/04 08:42:26;;;;;;;15.20;10.50;;;1.60;99.90;;;;;;5023861;28;20302;-66
2023/12/04 08:44:51;;;;;;;14.80;10.10;;;1.70;99.90;;;;;;5020836;28;20181;-67
2023/12/04 08:47:17;;;;;;;17.53;10.97;;;1.60;99.90;;;;;;5021027;28;20535;-66
2023/12/04 08:49:43;;;;;;;16.17;12.00;;;1.70;99.90;;;;;;5022142;28;20658;-68
2023/12/04 08:52:09;;;;;;;14.27;10.60;;;1.70;99.90;;;;;;5011556;28;20209;-65
2023/12/04 08:54:35;;;;;;;17.00;12.07;;;1.70;99.90;;;;;;5019581;28;20456;-67
2023/12/04 08:57:00;;;;;;;15.30;11.87;;;1.80;99.90;;;;;;5024347;28;20501;-66
2023/12/04 08:59:26;;;;;;;18.70;11.57;;;1.80;99.90;;;;;;5026050;28;20296;-69
2023/12/04 09:01:52;;;;;;;19.57;10.70;;;1.90;99.90;;;;;;5027187;28;20195;-66
2023/12/04 09:04:18;;;;;;;19.20;10.53;;;1.90;99.90;;;;;;5021234;28;20509;-65
2023/12/04 09:06:43;;;;;;;15.40;10.90;;;1.90;99.90;;;;;;5018137;28;20181;-66
2023/12/04 09:09:09;;;;;;;13.27;10.50;;;2.00;99.90;;;;;;5021870;28;20386;-66
2023/12/04 09:11:34;;;;;;;15.13;10.53;;;2.00;99.90;;;;;;5021180;28;20613;-66
2023/12/04 09:14:00;;;;;;;17.37;10.57;;;2.10;99.90;;;;;;5014230;28;20222;-66
2023/12/04 09:16:25;;;;;;;15.60;10.30;;;2.10;99.90;;;;;;5016359;28;20198;-66
2023/12/04 09:18:53;;;;;;;16.57;10.87;;;2.10;99.90;;;;;;5018524;28;20187;-67
2023/12/04 09:21:18;;;;;;;14.23;9.03;;;2.20;99.90;;;;;;5017645;28;20546;-66
2023/12/04 09:23:49;;;;;;;12.57;9.33;;;2.20;99.90;;;;;;5018193;28;20452;-66
2023/12/04 09:26:16;;;;;;;16.53;9.93;;;2.20;99.90;;;;;;5018817;28;20199;-67
2023/12/04 09:28:41;;;;;;;14.20;9.30;;;2.10;99.90;;;;;;5017601;28;20435;-69
2023/12/04 09:31:08;;;;;;;14.43;9.80;;;2.10;99.90;;;;;;5015101;28;22951;-68
2023/12/04 09:33:35;;;;;;;13.90;8.80;;;2.10;99.90;;;;;;5015234;28;20196;-69
2023/12/04 09:36:01;;;;;;;12.70;8.90;;;2.20;99.90;;;;;;5013526;28;20426;-67
2023/12/04 09:38:26;;;;;;;14.90;10.50;;;2.20;99.90;;;;;;5014294;28;20522;-68
2023/12/04 09:40:53;;;;;;;14.10;9.67;;;2.20;99.90;;;;;;5019644;28;20291;-68
2023/12/04 09:43:19;;;;;;;14.17;10.27;;;2.30;99.90;;;;;;5017164;28;20566;-68
2023/12/04 09:45:45;;;;;;;15.27;9.40;;;2.30;99.90;;;;;;5017466;28;20851;-67
2023/12/04 09:48:11;;;;;;;13.33;8.93;;;2.40;99.90;;;;;;5023299;28;20419;-68
2023/12/04 09:50:38;;;;;;;16.60;9.83;;;2.40;99.90;;;;;;5015995;28;20256;-68
2023/12/04 09:53:06;;;;;;;12.90;9.80;;;2.40;99.90;;;;;;5017876;28;20513;-68
2023/12/04 09:55:31;;;;;;;17.40;10.90;;;2.50;99.90;;;;;;5018935;28;20423;-68
2023/12/04 09:57:57;;;;;;;13.97;10.00;;;2.40;99.90;;;;;;5016684;28;20408;-68
2023/12/04 10:00:24;;;;;;;15.43;10.87;;;2.30;99.90;;;;;;5019274;28;20181;-67
2023/12/04 10:02:50;;;;;;;16.77;11.43;;;2.20;99.90;;;;;;5019303;28;20291;-67
2023/12/04 10:05:15;;;;;;;15.40;11.23;;;2.10;99.90;;;;;;5017512;28;20901;-67
2023/12/04 10:07:41;;;;;;;16.00;11.90;;;2.20;99.90;;;;;;5020127;28;20696;-67
2023/12/04 10:10:07;;;;;;;21.77;13.30;;;2.20;99.90;;;;;;5018492;28;20259;-67
2023/12/04 10:12:35;;;;;;;22.47;13.77;;;2.20;99.90;;;;;;5016683;28;20221;-68
2023/12/04 10:15:08;;;;;;;17.77;12.17;;;2.30;99.90;;;;;;5015268;28;20555;-68
2023/12/04 10:17:39;;;;;;;18.30;11.83;;;2.40;99.90;;;;;;5018610;28;20511;-68
2023/12/04 10:20:17;;;;;;;18.03;11.83;;;2.50;99.90;;;;;;5011679;28;20416;-68
2023/12/04 10:23:01;;;;;;;16.43;11.60;;;2.60;99.90;;;;;;5017012;28;20431;-67
2023/12/04 10:25:29;;;;;;;20.80;11.17;;;2.70;99.90;;;;;;5018418;28;20438;-67
2023/12/04 10:28:10;;;;;;;18.07;11.67;;;2.70;99.90;;;;;;5015562;28;20424;-68
2023/12/04 10:30:36;;;;;;;20.90;11.20;;;2.70;99.90;;;;;;5015940;28;20436;-68
2023/12/04 10:33:04;;;;;;;16.67;12.40;;;2.80;99.90;;;;;;5013567;28;20514;-68
2023/12/04 10:35:32;;;;;;;19.33;12.47;;;2.80;99.90;;;;;;5020623;28;20902;-68
2023/12/04 10:37:58;;;;;;;14.13;10.57;;;2.90;99.90;;;;;;5015318;28;20415;-68
2023/12/04 10:40:34;;;;;;;16.67;11.80;;;2.90;99.90;;;;;;5012341;28;20952;-69
2023/12/04 10:43:19;;;;;;;17.83;12.73;;;2.90;99.90;;;;;;5017148;28;20448;-67
2023/12/04 10:45:46;;;;;;;16.30;12.00;;;2.90;99.90;;;;;;5017402;28;20419;-67
2023/12/04 10:48:13;;;;;;;20.90;11.77;;;2.90;99.90;;;;;;5014813;28;21012;-67
2023/12/04 10:50:44;;;;;;;20.77;12.33;;;2.90;99.90;;;;;;5019670;28;20428;-67
2023/12/04 10:53:14;;;;;;;18.70;11.20;;;2.90;99.90;;;;;;5015767;28;20624;-67
2023/12/04 10:55:40;;;;;;;15.10;12.13;;;2.80;99.90;;;;;;5014565;28;20960;-68
2023/12/04 10:58:09;;;;;;;16.10;11.80;;;2.80;99.90;;;;;;5009784;28;20791;-67
2023/12/04 11:00:45;;;;;;;18.33;12.23;;;2.80;99.90;;;;;;5015733;28;20665;-67
2023/12/04 11:03:22;;;;;;;13.93;10.57;;;2.80;99.90;;;;;;5012704;28;20849;-67
2023/12/04 11:05:54;;;;;;;13.50;10.10;;;2.80;99.90;;;;;;5011566;28;20509;-67
2023/12/04 11:08:22;;;;;;;14.20;9.93;;;2.90;99.90;;;;;;5017635;28;20439;-67
2023/12/04 11:11:11;;;;;;;15.83;10.03;;;2.90;99.90;;;;;;5019416;28;20984;-67
2023/12/04 11:13:48;;;;;;;14.77;10.20;;;2.80;99.90;;;;;;5019109;28;21143;-67
2023/12/04 11:16:26;;;;;;;18.00;10.60;;;2.80;99.90;;;;;;5014725;28;20999;-66
2023/12/04 11:19:02;;;;;;;14.20;9.20;;;2.90;99.90;;;;;;5010763;28;20833;-66
2023/12/04 11:21:29;;;;;;;11.40;8.73;;;2.90;99.90;;;;;;5017742;28;20798;-66
2023/12/04 11:23:55;;;;;;;16.33;10.03;;;2.90;99.90;;;;;;5012408;28;20443;-67
2023/12/04 11:26:22;;;;;;;14.93;9.90;;;2.90;99.90;;;;;;5016635;28;20805;-66
2023/12/04 11:28:49;;;;;;;12.60;9.07;;;2.90;99.90;;;;;;5015291;28;20439;-66
2023/12/04 11:31:15;;;;;;;19.87;11.00;;;2.90;99.90;;;;;;5011618;28;20991;-66
2023/12/04 11:33:41;;;;;;;16.80;10.23;;;3.00;99.90;;;;;;5017189;28;20545;-66
2023/12/04 11:36:11;;;;;;;15.93;10.30;;;3.00;99.90;;;;;;5014797;28;20503;-66
2023/12/04 11:38:42;;;;;;;16.00;11.00;;;3.00;99.90;;;;;;5014710;28;20353;-67
2023/12/04 11:41:22;;;;;;;14.97;10.30;;;3.10;99.90;;;;;;5012842;28;20812;-67
2023/12/04 11:43:48;;;;;;;19.90;10.13;;;3.10;99.90;;;;;;5008472;28;20936;-67
2023/12/04 11:46:23;;;;;;;17.30;10.83;;;3.20;99.90;;;;;;5011404;28;20472;-66
2023/12/04 11:49:16;;;;;;;14.87;10.93;;;3.30;99.90;;;;;;5017287;28;20419;-67
2023/12/04 11:51:50;;;;;;;19.70;11.73;;;3.30;99.90;;;;;;5012697;28;20479;-66
2023/12/04 11:54:17;;;;;;;15.63;10.77;;;3.40;99.90;;;;;;5015559;28;20445;-67
2023/12/04 11:57:20;;;;;;;13.00;10.20;;;3.40;99.90;;;;;;5012892;28;20469;-66
2023/12/04 11:59:46;;;;;;;17.20;11.20;;;3.40;99.90;;;;;;5013098;28;20787;-66
2023/12/04 12:02:12;;;;;;;16.33;11.10;;;3.40;99.90;;;;;;5015284;28;20446;-67
2023/12/04 12:04:38;;;;;;;16.63;12.00;;;3.40;99.90;;;;;;5014301;28;20212;-67
2023/12/04 12:07:05;;;;;;;14.03;10.67;;;3.40;99.90;;;;;;5007014;28;20781;-67
2023/12/04 12:09:32;;;;;;;16.53;12.03;;;3.40;99.90;;;;;;5017072;28;20438;-67
2023/12/04 12:12:02;;;;;;;17.57;12.13;;;3.40;99.90;;;;;;5014914;28;20459;-66
2023/12/04 12:14:29;;;;;;;16.57;11.57;;;3.40;99.90;;;;;;5011933;28;20462;-67
2023/12/04 12:16:55;;;;;;;20.53;13.73;;;3.40;99.90;;;;;;5013716;28;20430;-66
2023/12/04 12:19:21;;;;;;;16.90;12.63;;;3.50;99.90;;;;;;5012450;28;20416;-66
2023/12/04 12:21:49;;;;;;;15.67;12.10;;;3.50;99.90;;;;;;5009644;28;20434;-66
2023/12/04 12:24:15;;;;;;;16.67;11.60;;;3.50;99.90;;;;;;5014134;28;21170;-66
2023/12/04 12:26:41;;;;;;;19.00;12.20;;;3.50;99.90;;;;;;5010599;28;20428;-66
2023/12/04 12:29:09;;;;;;;16.37;12.90;;;3.40;99.90;;;;;;5010804;28;20936;-66
2023/12/04 12:31:34;;;;;;;21.53;13.20;;;3.50;99.90;;;;;;5016797;28;20534;-67
2023/12/04 12:34:00;;;;;;;20.10;13.00;;;3.50;99.90;;;;;;5015522;28;20530;-66